sensor_id;sensor_type;location;lat;lon;timestamp;P1;durP1;ratioP1;P2;durP2;ratioP2
56720;SDS011;53183;47.412;18.884;2023-12-22T00:00:33;19.55;;;10.82;;
56720;SDS011;53183;47.412;18.884;2023-12-22T00:03:01;21.20;;;11.35;;
56720;SDS011;53183;47.412;18.884;2023-12-22T00:05:29;21.58;;;11.20;;
56720;SDS011;53183;47.412;18.884;2023-12-22T00:07:57;22.45;;;11.23;;
56720;SDS011;53183;47.412;18.884;2023-12-22T00:10:25;25.27;;;12.63;;
56720;SDS011;53183;47.412;18.884;2023-12-22T00:12:52;23.48;;;11.23;;
56720;SDS011;53183;47.412;18.884;2023-12-22T00:15:20;26.12;;;12.18;;
56720;SDS011;53183;47.412;18.884;2023-12-22T00:17:47;25.10;;;13.25;;
56720;SDS011;53183;47.412;18.884;2023-12-22T00:20:15;21.27;;;11.38;;
56720;SDS011;53183;47.412;18.884;2023-12-22T00:22:42;26.05;;;11.88;;
56720;SDS011;53183;47.412;18.884;2023-12-22T00:25:09;18.67;;;10.13;;
56720;SDS011;53183;47.412;18.884;2023-12-22T00:27:36;14.32;;;7.70;;
56720;SDS011;53183;47.412;18.884;2023-12-22T00:30:03;11.25;;;6.28;;
56720;SDS011;53183;47.412;18.884;2023-12-22T00:32:33;12.70;;;6.35;;
56720;SDS011;53183;47.412;18.884;2023-12-22T00:35:00;9.25;;;5.18;;
56720;SDS011;53183;47.412;18.884;2023-12-22T00:37:27;8.45;;;4.32;;
56720;SDS011;53183;47.412;18.884;2023-12-22T00:39:54;6.03;;;3.95;;
56720;SDS011;53183;47.412;18.884;2023-12-22T00:42:23;8.52;;;4.07;;
56720;SDS011;53183;47.412;18.884;2023-12-22T00:44:53;6.03;;;3.17;;
56720;SDS011;53183;47.412;18.884;2023-12-22T00:47:20;5.70;;;3.05;;
56720;SDS011;53183;47.412;18.884;2023-12-22T00:49:47;4.43;;;1.90;;
56720;SDS011;53183;47.412;18.884;2023-12-22T00:52:14;3.62;;;2.47;;
56720;SDS011;53183;47.412;18.884;2023-12-22T00:54:41;6.45;;;2.58;;
56720;SDS011;53183;47.412;18.884;2023-12-22T00:57:08;3.25;;;1.80;;
56720;SDS011;53183;47.412;18.884;2023-12-22T00:59:35;4.45;;;2.50;;
56720;SDS011;53183;47.412;18.884;2023-12-22T01:02:02;6.15;;;2.60;;
56720;SDS011;53183;47.412;18.884;2023-12-22T01:04:29;5.47;;;1.85;;
56720;SDS011;53183;47.412;18.884;2023-12-22T01:06:57;4.10;;;2.28;;
56720;SDS011;53183;47.412;18.884;2023-12-22T01:09:24;3.55;;;1.70;;
56720;SDS011;53183;47.412;18.884;2023-12-22T01:11:51;4.85;;;2.25;;
56720;SDS011;53183;47.412;18.884;2023-12-22T01:14:18;3.22;;;2.03;;
56720;SDS011;53183;47.412;18.884;2023-12-22T01:16:45;6.62;;;2.65;;
56720;SDS011;53183;47.412;18.884;2023-12-22T01:19:12;2.83;;;1.73;;
56720;SDS011;53183;47.412;18.884;2023-12-22T01:21:39;5.53;;;2.00;;
56720;SDS011;53183;47.412;18.884;2023-12-22T01:24:06;2.03;;;1.27;;
56720;SDS011;53183;47.412;18.884;2023-12-22T01:26:33;3.17;;;1.52;;
56720;SDS011;53183;47.412;18.884;2023-12-22T01:29:00;3.53;;;1.67;;
56720;SDS011;53183;47.412;18.884;2023-12-22T01:31:27;2.60;;;1.27;;
56720;SDS011;53183;47.412;18.884;2023-12-22T01:33:55;2.62;;;1.30;;
56720;SDS011;53183;47.412;18.884;2023-12-22T01:36:22;2.87;;;1.77;;
56720;SDS011;53183;47.412;18.884;2023-12-22T01:38:49;2.05;;;1.10;;
56720;SDS011;53183;47.412;18.884;2023-12-22T01:41:16;1.62;;;1.10;;
56720;SDS011;53183;47.412;18.884;2023-12-22T01:43:43;3.78;;;1.55;;
56720;SDS011;53183;47.412;18.884;2023-12-22T01:46:10;2.80;;;1.10;;
56720;SDS011;53183;47.412;18.884;2023-12-22T01:48:39;5.03;;;1.50;;
56720;SDS011;53183;47.412;18.884;2023-12-22T01:51:06;1.95;;;0.95;;
56720;SDS011;53183;47.412;18.884;2023-12-22T01:53:34;1.65;;;0.82;;
56720;SDS011;53183;47.412;18.884;2023-12-22T01:56:05;1.27;;;0.70;;
56720;SDS011;53183;47.412;18.884;2023-12-22T01:58:32;1.40;;;0.60;;
56720;SDS011;53183;47.412;18.884;2023-12-22T02:01:04;1.73;;;0.85;;
56720;SDS011;53183;47.412;18.884;2023-12-22T02:03:35;3.28;;;0.73;;
56720;SDS011;53183;47.412;18.884;2023-12-22T02:06:04;0.98;;;0.50;;
56720;SDS011;53183;47.412;18.884;2023-12-22T02:08:32;1.10;;;0.57;;
56720;SDS011;53183;47.412;18.884;2023-12-22T02:11:00;4.22;;;1.08;;
56720;SDS011;53183;47.412;18.884;2023-12-22T02:13:28;3.00;;;1.12;;
56720;SDS011;53183;47.412;18.884;2023-12-22T02:16:00;2.10;;;0.65;;
56720;SDS011;53183;47.412;18.884;2023-12-22T02:18:33;2.95;;;0.60;;
56720;SDS011;53183;47.412;18.884;2023-12-22T02:21:05;1.27;;;0.77;;
56720;SDS011;53183;47.412;18.884;2023-12-22T02:23:32;3.12;;;1.05;;
56720;SDS011;53183;47.412;18.884;2023-12-22T02:26:05;0.77;;;0.30;;
56720;SDS011;53183;47.412;18.884;2023-12-22T02:28:36;0.55;;;0.45;;
56720;SDS011;53183;47.412;18.884;2023-12-22T02:31:13;0.77;;;0.40;;
56720;SDS011;53183;47.412;18.884;2023-12-22T02:33:45;0.50;;;0.30;;
56720;SDS011;53183;47.412;18.884;2023-12-22T02:36:14;0.95;;;0.40;;
56720;SDS011;53183;47.412;18.884;2023-12-22T02:38:43;1.15;;;0.50;;
56720;SDS011;53183;47.412;18.884;2023-12-22T02:41:12;1.92;;;0.50;;
56720;SDS011;53183;47.412;18.884;2023-12-22T02:43:40;0.32;;;0.32;;
56720;SDS011;53183;47.412;18.884;2023-12-22T02:46:14;1.37;;;0.57;;
56720;SDS011;53183;47.412;18.884;2023-12-22T02:48:42;6.37;;;1.40;;
56720;SDS011;53183;47.412;18.884;2023-12-22T02:51:10;1.15;;;0.52;;
56720;SDS011;53183;47.412;18.884;2023-12-22T02:53:37;1.23;;;0.80;;
56720;SDS011;53183;47.412;18.884;2023-12-22T02:56:05;4.25;;;0.82;;
56720;SDS011;53183;47.412;18.884;2023-12-22T02:58:32;1.92;;;0.57;;
56720;SDS011;53183;47.412;18.884;2023-12-22T03:01:00;14.80;;;1.83;;
56720;SDS011;53183;47.412;18.884;2023-12-22T03:03:28;1.92;;;1.00;;
56720;SDS011;53183;47.412;18.884;2023-12-22T03:05:55;2.85;;;0.98;;
56720;SDS011;53183;47.412;18.884;2023-12-22T03:08:23;0.90;;;0.55;;
56720;SDS011;53183;47.412;18.884;2023-12-22T03:10:50;2.62;;;0.77;;
56720;SDS011;53183;47.412;18.884;2023-12-22T03:13:18;3.92;;;0.62;;
56720;SDS011;53183;47.412;18.884;2023-12-22T03:15:45;1.60;;;0.70;;
56720;SDS011;53183;47.412;18.884;2023-12-22T03:18:14;2.17;;;0.60;;
56720;SDS011;53183;47.412;18.884;2023-12-22T03:20:42;1.65;;;0.57;;
56720;SDS011;53183;47.412;18.884;2023-12-22T03:23:09;1.37;;;0.55;;
56720;SDS011;53183;47.412;18.884;2023-12-22T03:25:37;1.90;;;0.68;;
56720;SDS011;53183;47.412;18.884;2023-12-22T03:28:06;2.28;;;0.60;;
56720;SDS011;53183;47.412;18.884;2023-12-22T03:30:34;0.35;;;0.30;;
56720;SDS011;53183;47.412;18.884;2023-12-22T03:33:03;0.52;;;0.37;;
56720;SDS011;53183;47.412;18.884;2023-12-22T03:35:32;1.20;;;0.50;;
56720;SDS011;53183;47.412;18.884;2023-12-22T03:37:59;0.75;;;0.15;;
56720;SDS011;53183;47.412;18.884;2023-12-22T03:40:28;1.58;;;0.77;;
56720;SDS011;53183;47.412;18.884;2023-12-22T03:42:57;0.30;;;0.10;;
56720;SDS011;53183;47.412;18.884;2023-12-22T03:45:24;2.22;;;0.77;;
56720;SDS011;53183;47.412;18.884;2023-12-22T03:47:52;0.25;;;0.15;;
56720;SDS011;53183;47.412;18.884;2023-12-22T03:50:19;1.33;;;0.37;;
56720;SDS011;53183;47.412;18.884;2023-12-22T03:52:47;0.55;;;0.13;;
56720;SDS011;53183;47.412;18.884;2023-12-22T03:55:15;3.28;;;0.32;;
56720;SDS011;53183;47.412;18.884;2023-12-22T03:57:43;0.47;;;0.20;;
56720;SDS011;53183;47.412;18.884;2023-12-22T04:00:10;2.47;;;0.57;;
56720;SDS011;53183;47.412;18.884;2023-12-22T04:02:39;0.88;;;0.20;;
56720;SDS011;53183;47.412;18.884;2023-12-22T04:05:07;3.33;;;0.20;;
56720;SDS011;53183;47.412;18.884;2023-12-22T04:07:35;11.05;;;0.45;;
56720;SDS011;53183;47.412;18.884;2023-12-22T04:10:03;0.35;;;0.20;;
56720;SDS011;53183;47.412;18.884;2023-12-22T04:12:30;2.45;;;0.45;;
56720;SDS011;53183;47.412;18.884;2023-12-22T04:14:58;2.80;;;0.25;;
56720;SDS011;53183;47.412;18.884;2023-12-22T04:17:26;2.90;;;0.68;;
56720;SDS011;53183;47.412;18.884;2023-12-22T04:19:53;1.90;;;0.20;;
56720;SDS011;53183;47.412;18.884;2023-12-22T04:22:21;0.52;;;0.30;;
56720;SDS011;53183;47.412;18.884;2023-12-22T04:24:50;1.92;;;0.32;;
56720;SDS011;53183;47.412;18.884;2023-12-22T04:27:18;0.77;;;0.20;;
56720;SDS011;53183;47.412;18.884;2023-12-22T04:29:45;0.47;;;0.20;;
56720;SDS011;53183;47.412;18.884;2023-12-22T04:32:13;0.62;;;0.40;;
56720;SDS011;53183;47.412;18.884;2023-12-22T04:34:40;0.65;;;0.25;;
56720;SDS011;53183;47.412;18.884;2023-12-22T04:37:08;2.42;;;0.37;;
56720;SDS011;53183;47.412;18.884;2023-12-22T04:39:37;0.98;;;0.60;;
56720;SDS011;53183;47.412;18.884;2023-12-22T04:42:04;2.90;;;0.45;;
56720;SDS011;53183;47.412;18.884;2023-12-22T04:44:31;2.00;;;0.60;;
56720;SDS011;53183;47.412;18.884;2023-12-22T04:46:59;0.88;;;0.28;;
56720;SDS011;53183;47.412;18.884;2023-12-22T04:49:27;2.37;;;0.32;;
56720;SDS011;53183;47.412;18.884;2023-12-22T04:51:54;2.60;;;0.55;;
56720;SDS011;53183;47.412;18.884;2023-12-22T04:54:26;2.55;;;0.45;;
56720;SDS011;53183;47.412;18.884;2023-12-22T04:56:53;2.03;;;0.50;;
56720;SDS011;53183;47.412;18.884;2023-12-22T04:59:21;4.15;;;0.62;;
56720;SDS011;53183;47.412;18.884;2023-12-22T05:01:49;4.65;;;0.77;;
56720;SDS011;53183;47.412;18.884;2023-12-22T05:04:16;2.42;;;0.30;;
56720;SDS011;53183;47.412;18.884;2023-12-22T05:06:44;2.37;;;0.43;;
56720;SDS011;53183;47.412;18.884;2023-12-22T05:09:12;2.17;;;0.80;;
56720;SDS011;53183;47.412;18.884;2023-12-22T05:11:40;4.97;;;0.77;;
56720;SDS011;53183;47.412;18.884;2023-12-22T05:14:08;3.65;;;0.70;;
56720;SDS011;53183;47.412;18.884;2023-12-22T05:16:36;1.35;;;0.68;;
56720;SDS011;53183;47.412;18.884;2023-12-22T05:19:04;0.93;;;0.60;;
56720;SDS011;53183;47.412;18.884;2023-12-22T05:21:31;2.75;;;1.12;;
56720;SDS011;53183;47.412;18.884;2023-12-22T05:23:59;1.73;;;1.17;;
56720;SDS011;53183;47.412;18.884;2023-12-22T05:26:28;3.90;;;1.02;;
56720;SDS011;53183;47.412;18.884;2023-12-22T05:28:57;4.90;;;0.85;;
56720;SDS011;53183;47.412;18.884;2023-12-22T05:31:25;2.62;;;0.52;;
56720;SDS011;53183;47.412;18.884;2023-12-22T05:33:52;6.82;;;1.58;;
56720;SDS011;53183;47.412;18.884;2023-12-22T05:36:20;1.42;;;0.70;;
56720;SDS011;53183;47.412;18.884;2023-12-22T05:38:48;7.47;;;0.57;;
56720;SDS011;53183;47.412;18.884;2023-12-22T05:41:15;4.37;;;0.93;;
56720;SDS011;53183;47.412;18.884;2023-12-22T05:44:02;0.75;;;0.50;;
56720;SDS011;53183;47.412;18.884;2023-12-22T05:46:30;3.35;;;0.60;;
56720;SDS011;53183;47.412;18.884;2023-12-22T05:48:58;5.62;;;0.77;;
56720;SDS011;53183;47.412;18.884;2023-12-22T05:51:26;2.05;;;1.25;;
56720;SDS011;53183;47.412;18.884;2023-12-22T05:53:54;7.53;;;2.40;;
56720;SDS011;53183;47.412;18.884;2023-12-22T05:56:22;5.85;;;1.52;;
56720;SDS011;53183;47.412;18.884;2023-12-22T05:58:50;4.22;;;1.25;;
56720;SDS011;53183;47.412;18.884;2023-12-22T06:01:18;2.97;;;0.57;;
56720;SDS011;53183;47.412;18.884;2023-12-22T06:03:46;5.10;;;0.57;;
56720;SDS011;53183;47.412;18.884;2023-12-22T06:06:15;0.73;;;0.25;;
56720;SDS011;53183;47.412;18.884;2023-12-22T06:08:43;2.25;;;0.93;;
56720;SDS011;53183;47.412;18.884;2023-12-22T06:11:10;0.75;;;0.50;;
56720;SDS011;53183;47.412;18.884;2023-12-22T06:13:36;6.90;;;0.85;;
56720;SDS011;53183;47.412;18.884;2023-12-22T06:16:03;1.27;;;0.40;;
56720;SDS011;53183;47.412;18.884;2023-12-22T06:18:31;4.82;;;0.60;;
56720;SDS011;53183;47.412;18.884;2023-12-22T06:20:58;8.93;;;0.75;;
56720;SDS011;53183;47.412;18.884;2023-12-22T06:23:25;2.87;;;0.70;;
56720;SDS011;53183;47.412;18.884;2023-12-22T06:25:52;3.70;;;1.08;;
56720;SDS011;53183;47.412;18.884;2023-12-22T06:28:19;3.50;;;0.40;;
56720;SDS011;53183;47.412;18.884;2023-12-22T06:30:46;4.37;;;0.93;;
56720;SDS011;53183;47.412;18.884;2023-12-22T06:33:14;2.50;;;0.62;;
56720;SDS011;53183;47.412;18.884;2023-12-22T06:35:41;2.42;;;1.02;;
56720;SDS011;53183;47.412;18.884;2023-12-22T06:38:08;2.37;;;0.88;;
56720;SDS011;53183;47.412;18.884;2023-12-22T06:40:36;9.05;;;1.60;;
56720;SDS011;53183;47.412;18.884;2023-12-22T06:43:04;4.78;;;1.10;;
56720;SDS011;53183;47.412;18.884;2023-12-22T06:45:31;1.70;;;0.93;;
56720;SDS011;53183;47.412;18.884;2023-12-22T06:47:58;3.08;;;0.60;;
56720;SDS011;53183;47.412;18.884;2023-12-22T06:50:25;3.22;;;0.50;;
56720;SDS011;53183;47.412;18.884;2023-12-22T06:52:53;7.37;;;0.47;;
56720;SDS011;53183;47.412;18.884;2023-12-22T06:55:20;3.65;;;1.02;;
56720;SDS011;53183;47.412;18.884;2023-12-22T06:57:47;2.95;;;0.52;;
56720;SDS011;53183;47.412;18.884;2023-12-22T07:00:15;8.48;;;1.90;;
56720;SDS011;53183;47.412;18.884;2023-12-22T07:02:43;4.95;;;1.55;;
56720;SDS011;53183;47.412;18.884;2023-12-22T07:07:40;2.55;;;1.20;;
56720;SDS011;53183;47.412;18.884;2023-12-22T07:10:09;2.50;;;0.35;;
56720;SDS011;53183;47.412;18.884;2023-12-22T07:12:38;1.87;;;0.57;;
56720;SDS011;53183;47.412;18.884;2023-12-22T07:15:06;6.62;;;1.15;;
56720;SDS011;53183;47.412;18.884;2023-12-22T07:17:37;10.32;;;1.30;;
56720;SDS011;53183;47.412;18.884;2023-12-22T07:20:05;7.60;;;1.15;;
56720;SDS011;53183;47.412;18.884;2023-12-22T07:22:32;9.15;;;1.15;;
56720;SDS011;53183;47.412;18.884;2023-12-22T07:24:59;5.12;;;1.08;;
56720;SDS011;53183;47.412;18.884;2023-12-22T07:27:27;5.85;;;1.35;;
56720;SDS011;53183;47.412;18.884;2023-12-22T07:29:55;7.50;;;0.85;;
56720;SDS011;53183;47.412;18.884;2023-12-22T07:32:24;3.37;;;1.08;;
56720;SDS011;53183;47.412;18.884;2023-12-22T07:34:51;2.55;;;1.08;;
56720;SDS011;53183;47.412;18.884;2023-12-22T07:37:19;5.68;;;1.05;;
56720;SDS011;53183;47.412;18.884;2023-12-22T07:39:47;5.00;;;0.75;;
56720;SDS011;53183;47.412;18.884;2023-12-22T07:42:15;6.37;;;1.25;;
56720;SDS011;53183;47.412;18.884;2023-12-22T07:44:43;4.68;;;1.12;;
56720;SDS011;53183;47.412;18.884;2023-12-22T07:47:11;4.10;;;1.00;;
56720;SDS011;53183;47.412;18.884;2023-12-22T07:49:38;3.12;;;0.90;;
56720;SDS011;53183;47.412;18.884;2023-12-22T07:52:06;2.08;;;0.80;;
56720;SDS011;53183;47.412;18.884;2023-12-22T07:54:33;3.58;;;1.12;;
56720;SDS011;53183;47.412;18.884;2023-12-22T07:57:01;5.45;;;1.33;;
56720;SDS011;53183;47.412;18.884;2023-12-22T07:59:28;4.15;;;1.00;;
56720;SDS011;53183;47.412;18.884;2023-12-22T08:01:58;2.50;;;0.95;;
56720;SDS011;53183;47.412;18.884;2023-12-22T08:04:27;1.75;;;0.57;;
56720;SDS011;53183;47.412;18.884;2023-12-22T08:06:54;3.05;;;0.65;;
56720;SDS011;53183;47.412;18.884;2023-12-22T08:09:22;6.32;;;1.52;;
56720;SDS011;53183;47.412;18.884;2023-12-22T08:11:50;4.85;;;0.80;;
56720;SDS011;53183;47.412;18.884;2023-12-22T08:14:20;5.32;;;0.68;;
56720;SDS011;53183;47.412;18.884;2023-12-22T08:16:47;2.83;;;0.65;;
56720;SDS011;53183;47.412;18.884;2023-12-22T08:19:15;3.03;;;0.60;;
56720;SDS011;53183;47.412;18.884;2023-12-22T08:21:43;1.55;;;0.80;;
56720;SDS011;53183;47.412;18.884;2023-12-22T08:24:15;2.87;;;0.70;;
56720;SDS011;53183;47.412;18.884;2023-12-22T08:26:49;2.03;;;0.68;;
56720;SDS011;53183;47.412;18.884;2023-12-22T08:29:17;6.68;;;1.00;;
56720;SDS011;53183;47.412;18.884;2023-12-22T08:31:46;4.25;;;0.60;;
56720;SDS011;53183;47.412;18.884;2023-12-22T08:34:17;4.47;;;1.08;;
56720;SDS011;53183;47.412;18.884;2023-12-22T08:36:44;5.60;;;2.00;;
56720;SDS011;53183;47.412;18.884;2023-12-22T08:39:12;3.30;;;1.30;;
56720;SDS011;53183;47.412;18.884;2023-12-22T08:41:40;4.18;;;0.77;;
56720;SDS011;53183;47.412;18.884;2023-12-22T08:44:08;2.87;;;0.65;;
56720;SDS011;53183;47.412;18.884;2023-12-22T08:46:36;5.07;;;1.17;;
56720;SDS011;53183;47.412;18.884;2023-12-22T08:49:03;7.25;;;0.93;;
56720;SDS011;53183;47.412;18.884;2023-12-22T08:51:39;3.95;;;0.95;;
56720;SDS011;53183;47.412;18.884;2023-12-22T08:54:08;2.67;;;0.70;;
56720;SDS011;53183;47.412;18.884;2023-12-22T08:56:35;3.80;;;0.65;;
56720;SDS011;53183;47.412;18.884;2023-12-22T08:59:03;6.70;;;1.20;;
56720;SDS011;53183;47.412;18.884;2023-12-22T09:01:31;6.00;;;1.10;;
56720;SDS011;53183;47.412;18.884;2023-12-22T09:03:58;8.80;;;0.82;;
56720;SDS011;53183;47.412;18.884;2023-12-22T09:06:26;2.22;;;0.60;;
56720;SDS011;53183;47.412;18.884;2023-12-22T09:08:53;0.85;;;0.47;;
56720;SDS011;53183;47.412;18.884;2023-12-22T09:11:21;9.63;;;1.60;;
56720;SDS011;53183;47.412;18.884;2023-12-22T09:14:17;1.27;;;0.45;;
56720;SDS011;53183;47.412;18.884;2023-12-22T09:16:44;3.83;;;0.82;;
56720;SDS011;53183;47.412;18.884;2023-12-22T09:19:12;1.77;;;0.47;;
56720;SDS011;53183;47.412;18.884;2023-12-22T09:21:39;5.62;;;1.55;;
56720;SDS011;53183;47.412;18.884;2023-12-22T09:24:06;3.62;;;0.80;;
56720;SDS011;53183;47.412;18.884;2023-12-22T09:26:33;2.95;;;1.25;;
56720;SDS011;53183;47.412;18.884;2023-12-22T09:29:07;2.17;;;0.93;;
56720;SDS011;53183;47.412;18.884;2023-12-22T09:31:35;5.85;;;0.88;;
56720;SDS011;53183;47.412;18.884;2023-12-22T09:34:02;2.10;;;0.80;;
56720;SDS011;53183;47.412;18.884;2023-12-22T09:36:29;1.67;;;0.70;;
56720;SDS011;53183;47.412;18.884;2023-12-22T09:38:56;4.95;;;1.05;;
56720;SDS011;53183;47.412;18.884;2023-12-22T09:41:23;2.95;;;0.43;;
56720;SDS011;53183;47.412;18.884;2023-12-22T09:43:50;3.37;;;1.60;;
56720;SDS011;53183;47.412;18.884;2023-12-22T09:46:20;1.00;;;0.65;;
56720;SDS011;53183;47.412;18.884;2023-12-22T09:48:49;1.85;;;0.70;;
56720;SDS011;53183;47.412;18.884;2023-12-22T09:51:19;2.05;;;0.40;;
56720;SDS011;53183;47.412;18.884;2023-12-22T09:53:47;1.62;;;0.65;;
56720;SDS011;53183;47.412;18.884;2023-12-22T09:56:16;4.57;;;0.95;;
56720;SDS011;53183;47.412;18.884;2023-12-22T09:58:45;0.80;;;0.40;;
56720;SDS011;53183;47.412;18.884;2023-12-22T10:01:14;2.03;;;0.55;;
56720;SDS011;53183;47.412;18.884;2023-12-22T10:03:42;1.70;;;0.50;;
56720;SDS011;53183;47.412;18.884;2023-12-22T10:06:12;1.87;;;0.55;;
56720;SDS011;53183;47.412;18.884;2023-12-22T10:08:39;1.80;;;0.50;;
56720;SDS011;53183;47.412;18.884;2023-12-22T10:11:11;3.22;;;0.57;;
56720;SDS011;53183;47.412;18.884;2023-12-22T10:13:59;2.20;;;0.10;;
56720;SDS011;53183;47.412;18.884;2023-12-22T10:16:28;0.37;;;0.20;;
56720;SDS011;53183;47.412;18.884;2023-12-22T10:18:55;0.85;;;0.30;;
56720;SDS011;53183;47.412;18.884;2023-12-22T10:21:23;4.90;;;0.40;;
56720;SDS011;53183;47.412;18.884;2023-12-22T10:23:50;0.95;;;0.30;;
56720;SDS011;53183;47.412;18.884;2023-12-22T10:26:18;3.28;;;0.60;;
56720;SDS011;53183;47.412;18.884;2023-12-22T10:28:47;1.70;;;0.90;;
56720;SDS011;53183;47.412;18.884;2023-12-22T10:31:16;0.22;;;0.20;;
56720;SDS011;53183;47.412;18.884;2023-12-22T10:33:44;1.92;;;0.40;;
56720;SDS011;53183;47.412;18.884;2023-12-22T10:36:11;2.72;;;0.65;;
56720;SDS011;53183;47.412;18.884;2023-12-22T10:38:39;1.48;;;0.25;;
56720;SDS011;53183;47.412;18.884;2023-12-22T10:41:06;2.92;;;0.35;;
56720;SDS011;53183;47.412;18.884;2023-12-22T10:43:37;0.47;;;0.20;;
56720;SDS011;53183;47.412;18.884;2023-12-22T10:46:06;1.48;;;0.50;;
56720;SDS011;53183;47.412;18.884;2023-12-22T10:48:34;1.55;;;0.45;;
56720;SDS011;53183;47.412;18.884;2023-12-22T10:51:02;2.33;;;0.47;;
56720;SDS011;53183;47.412;18.884;2023-12-22T10:53:29;2.95;;;0.32;;
56720;SDS011;53183;47.412;18.884;2023-12-22T10:55:57;4.22;;;0.80;;
56720;SDS011;53183;47.412;18.884;2023-12-22T10:58:24;1.30;;;0.50;;
56720;SDS011;53183;47.412;18.884;2023-12-22T11:00:55;3.05;;;1.12;;
56720;SDS011;53183;47.412;18.884;2023-12-22T11:03:24;3.50;;;0.50;;
56720;SDS011;53183;47.412;18.884;2023-12-22T11:05:53;0.40;;;0.30;;
56720;SDS011;53183;47.412;18.884;2023-12-22T11:08:22;2.45;;;0.50;;
56720;SDS011;53183;47.412;18.884;2023-12-22T11:10:53;2.12;;;0.65;;
56720;SDS011;53183;47.412;18.884;2023-12-22T11:13:25;1.25;;;0.30;;
56720;SDS011;53183;47.412;18.884;2023-12-22T11:15:57;1.58;;;0.43;;
56720;SDS011;53183;47.412;18.884;2023-12-22T11:18:24;3.20;;;0.70;;
56720;SDS011;53183;47.412;18.884;2023-12-22T11:20:54;0.82;;;0.60;;
56720;SDS011;53183;47.412;18.884;2023-12-22T11:23:22;2.25;;;0.52;;
56720;SDS011;53183;47.412;18.884;2023-12-22T11:25:51;2.80;;;0.57;;
56720;SDS011;53183;47.412;18.884;2023-12-22T11:28:21;0.50;;;0.37;;
56720;SDS011;53183;47.412;18.884;2023-12-22T11:30:50;1.35;;;0.40;;
56720;SDS011;53183;47.412;18.884;2023-12-22T11:33:25;0.47;;;0.22;;
56720;SDS011;53183;47.412;18.884;2023-12-22T11:35:55;0.77;;;0.30;;
56720;SDS011;53183;47.412;18.884;2023-12-22T11:38:23;4.45;;;0.70;;
56720;SDS011;53183;47.412;18.884;2023-12-22T11:40:51;2.40;;;0.30;;
56720;SDS011;53183;47.412;18.884;2023-12-22T11:43:19;1.08;;;0.45;;
56720;SDS011;53183;47.412;18.884;2023-12-22T11:45:49;0.98;;;0.30;;
56720;SDS011;53183;47.412;18.884;2023-12-22T11:48:16;1.02;;;0.20;;
56720;SDS011;53183;47.412;18.884;2023-12-22T11:50:44;0.32;;;0.10;;
56720;SDS011;53183;47.412;18.884;2023-12-22T11:53:21;2.05;;;0.40;;
56720;SDS011;53183;47.412;18.884;2023-12-22T11:56:22;1.12;;;0.20;;
56720;SDS011;53183;47.412;18.884;2023-12-22T11:58:46;0.32;;;0.28;;
56720;SDS011;53183;47.412;18.884;2023-12-22T12:01:19;0.40;;;0.30;;
56720;SDS011;53183;47.412;18.884;2023-12-22T12:08:55;2.72;;;0.50;;
56720;SDS011;53183;47.412;18.884;2023-12-22T12:11:23;3.83;;;0.40;;
56720;SDS011;53183;47.412;18.884;2023-12-22T12:13:50;0.62;;;0.30;;
56720;SDS011;53183;47.412;18.884;2023-12-22T12:16:19;2.28;;;0.45;;
56720;SDS011;53183;47.412;18.884;2023-12-22T12:18:50;2.12;;;0.40;;
56720;SDS011;53183;47.412;18.884;2023-12-22T12:21:20;0.75;;;0.30;;
56720;SDS011;53183;47.412;18.884;2023-12-22T12:23:50;2.42;;;0.37;;
56720;SDS011;53183;47.412;18.884;2023-12-22T12:26:17;2.17;;;0.25;;
56720;SDS011;53183;47.412;18.884;2023-12-22T12:28:45;0.68;;;0.28;;
56720;SDS011;53183;47.412;18.884;2023-12-22T12:31:14;0.45;;;0.20;;
56720;SDS011;53183;47.412;18.884;2023-12-22T12:33:42;3.95;;;0.62;;
56720;SDS011;53183;47.412;18.884;2023-12-22T12:36:10;0.57;;;0.35;;
56720;SDS011;53183;47.412;18.884;2023-12-22T12:39:01;0.90;;;0.25;;
56720;SDS011;53183;47.412;18.884;2023-12-22T12:41:41;0.43;;;0.30;;
56720;SDS011;53183;47.412;18.884;2023-12-22T12:44:12;0.95;;;0.20;;
56720;SDS011;53183;47.412;18.884;2023-12-22T12:46:41;0.37;;;0.28;;
56720;SDS011;53183;47.412;18.884;2023-12-22T12:49:11;0.57;;;0.20;;
56720;SDS011;53183;47.412;18.884;2023-12-22T12:51:41;1.45;;;0.45;;
56720;SDS011;53183;47.412;18.884;2023-12-22T12:54:11;2.42;;;0.35;;
56720;SDS011;53183;47.412;18.884;2023-12-22T12:56:40;0.70;;;0.45;;
56720;SDS011;53183;47.412;18.884;2023-12-22T12:59:10;3.05;;;0.47;;
56720;SDS011;53183;47.412;18.884;2023-12-22T13:01:42;2.30;;;0.32;;
56720;SDS011;53183;47.412;18.884;2023-12-22T13:04:11;0.73;;;0.20;;
56720;SDS011;53183;47.412;18.884;2023-12-22T13:06:49;0.45;;;0.17;;
56720;SDS011;53183;47.412;18.884;2023-12-22T13:09:17;0.50;;;0.20;;
56720;SDS011;53183;47.412;18.884;2023-12-22T13:11:45;0.30;;;0.28;;
56720;SDS011;53183;47.412;18.884;2023-12-22T13:14:23;2.45;;;0.43;;
56720;SDS011;53183;47.412;18.884;2023-12-22T13:16:57;0.77;;;0.32;;
56720;SDS011;53183;47.412;18.884;2023-12-22T13:19:27;3.65;;;1.50;;
56720;SDS011;53183;47.412;18.884;2023-12-22T13:21:55;1.25;;;0.37;;
56720;SDS011;53183;47.412;18.884;2023-12-22T13:24:23;1.52;;;0.55;;
56720;SDS011;53183;47.412;18.884;2023-12-22T13:27:02;2.28;;;0.80;;
56720;SDS011;53183;47.412;18.884;2023-12-22T13:29:44;3.75;;;0.77;;
56720;SDS011;53183;47.412;18.884;2023-12-22T13:32:19;3.15;;;0.80;;
56720;SDS011;53183;47.412;18.884;2023-12-22T13:34:50;3.00;;;0.73;;
56720;SDS011;53183;47.412;18.884;2023-12-22T13:37:20;0.90;;;0.50;;
56720;SDS011;53183;47.412;18.884;2023-12-22T13:39:50;3.60;;;0.65;;
56720;SDS011;53183;47.412;18.884;2023-12-22T13:42:18;0.52;;;0.30;;
56720;SDS011;53183;47.412;18.884;2023-12-22T13:44:48;2.17;;;0.52;;
56720;SDS011;53183;47.412;18.884;2023-12-22T13:47:16;0.77;;;0.30;;
56720;SDS011;53183;47.412;18.884;2023-12-22T13:49:45;0.85;;;0.30;;
56720;SDS011;53183;47.412;18.884;2023-12-22T13:52:29;7.07;;;0.60;;
56720;SDS011;53183;47.412;18.884;2023-12-22T13:55:00;0.52;;;0.37;;
56720;SDS011;53183;47.412;18.884;2023-12-22T13:57:28;3.95;;;0.93;;
56720;SDS011;53183;47.412;18.884;2023-12-22T13:59:55;0.95;;;0.50;;
56720;SDS011;53183;47.412;18.884;2023-12-22T14:02:23;1.92;;;0.73;;
56720;SDS011;53183;47.412;18.884;2023-12-22T14:04:51;3.17;;;1.15;;
56720;SDS011;53183;47.412;18.884;2023-12-22T14:07:19;0.77;;;0.50;;
56720;SDS011;53183;47.412;18.884;2023-12-22T14:09:46;2.65;;;0.20;;
56720;SDS011;53183;47.412;18.884;2023-12-22T14:12:14;1.05;;;0.30;;
56720;SDS011;53183;47.412;18.884;2023-12-22T14:14:52;1.12;;;0.20;;
56720;SDS011;53183;47.412;18.884;2023-12-22T14:17:20;0.52;;;0.20;;
56720;SDS011;53183;47.412;18.884;2023-12-22T14:19:48;1.98;;;0.40;;
56720;SDS011;53183;47.412;18.884;2023-12-22T14:22:16;3.87;;;0.37;;
56720;SDS011;53183;47.412;18.884;2023-12-22T14:24:44;1.10;;;0.50;;
56720;SDS011;53183;47.412;18.884;2023-12-22T14:27:12;1.37;;;0.40;;
56720;SDS011;53183;47.412;18.884;2023-12-22T14:29:39;1.25;;;0.60;;
56720;SDS011;53183;47.412;18.884;2023-12-22T14:32:09;5.03;;;1.27;;
56720;SDS011;53183;47.412;18.884;2023-12-22T14:34:39;1.60;;;0.73;;
56720;SDS011;53183;47.412;18.884;2023-12-22T14:37:07;2.45;;;0.85;;
56720;SDS011;53183;47.412;18.884;2023-12-22T14:39:34;3.42;;;0.85;;
56720;SDS011;53183;47.412;18.884;2023-12-22T14:42:04;0.75;;;0.20;;
56720;SDS011;53183;47.412;18.884;2023-12-22T14:44:32;2.08;;;0.20;;
56720;SDS011;53183;47.412;18.884;2023-12-22T14:47:00;0.52;;;0.30;;
56720;SDS011;53183;47.412;18.884;2023-12-22T14:49:27;0.75;;;0.40;;